sensor_id;sensor_type;location;lat;lon;timestamp;temperature;humidity
3055;DHT22;1537;52.018;8.542;2023-12-29T00:03:12;10.20;99.90
3055;DHT22;1537;52.018;8.542;2023-12-29T00:06:37;10.30;99.90
3055;DHT22;1537;52.018;8.542;2023-12-29T00:10:17;10.30;99.90
3055;DHT22;1537;52.018;8.542;2023-12-29T00:13:42;10.30;99.90
3055;DHT22;1537;52.018;8.542;2023-12-29T00:17:06;10.30;99.90
3055;DHT22;1537;52.018;8.542;2023-12-29T00:20:30;10.30;99.90
3055;DHT22;1537;52.018;8.542;2023-12-29T00:24:04;10.40;99.90
3055;DHT22;1537;52.018;8.542;2023-12-29T00:27:29;10.40;99.90
3055;DHT22;1537;52.018;8.542;2023-12-29T00:30:55;10.40;99.90
3055;DHT22;1537;52.018;8.542;2023-12-29T00:34:25;10.40;99.90
3055;DHT22;1537;52.018;8.542;2023-12-29T00:37:50;10.50;99.90
3055;DHT22;1537;52.018;8.542;2023-12-29T00:41:14;10.50;99.90
3055;DHT22;1537;52.018;8.542;2023-12-29T00:44:40;10.50;99.90
3055;DHT22;1537;52.018;8.542;2023-12-29T00:48:06;10.40;99.90
3055;DHT22;1537;52.018;8.542;2023-12-29T00:51:30;10.40;99.90
3055;DHT22;1537;52.018;8.542;2023-12-29T00:54:54;10.30;99.90
3055;DHT22;1537;52.018;8.542;2023-12-29T00:58:18;10.30;99.90
3055;DHT22;1537;52.018;8.542;2023-12-29T01:01:43;10.20;99.90
3055;DHT22;1537;52.018;8.542;2023-12-29T01:05:08;10.10;99.90
3055;DHT22;1537;52.018;8.542;2023-12-29T01:08:33;10.00;99.90
3055;DHT22;1537;52.018;8.542;2023-12-29T01:11:58;10.00;99.90
3055;DHT22;1537;52.018;8.542;2023-12-29T01:15:22;10.00;99.90
3055;DHT22;1537;52.018;8.542;2023-12-29T01:18:47;10.00;99.90
3055;DHT22;1537;52.018;8.542;2023-12-29T01:22:12;10.10;99.90
3055;DHT22;1537;52.018;8.542;2023-12-29T01:25:36;10.10;99.90
3055;DHT22;1537;52.018;8.542;2023-12-29T01:29:00;10.10;99.90
3055;DHT22;1537;52.018;8.542;2023-12-29T01:32:24;10.00;99.90
3055;DHT22;1537;52.018;8.542;2023-12-29T01:35:50;10.00;99.90
3055;DHT22;1537;52.018;8.542;2023-12-29T01:39:14;10.00;99.90
3055;DHT22;1537;52.018;8.542;2023-12-29T01:42:38;10.10;99.90
3055;DHT22;1537;52.018;8.542;2023-12-29T01:46:02;10.10;99.90
3055;DHT22;1537;52.018;8.542;2023-12-29T01:49:27;10.20;99.90
3055;DHT22;1537;52.018;8.542;2023-12-29T01:52:54;10.20;99.90
3055;DHT22;1537;52.018;8.542;2023-12-29T01:56:20;10.30;99.90
3055;DHT22;1537;52.018;8.542;2023-12-29T01:59:44;10.30;99.90
3055;DHT22;1537;52.018;8.542;2023-12-29T02:03:10;10.40;99.90
3055;DHT22;1537;52.018;8.542;2023-12-29T02:06:35;10.40;99.90
3055;DHT22;1537;52.018;8.542;2023-12-29T02:10:03;10.40;99.90
3055;DHT22;1537;52.018;8.542;2023-12-29T02:13:27;10.40;99.90
3055;DHT22;1537;52.018;8.542;2023-12-29T02:16:58;10.40;99.90
3055;DHT22;1537;52.018;8.542;2023-12-29T02:20:26;10.50;99.90
3055;DHT22;1537;52.018;8.542;2023-12-29T02:23:51;10.50;99.90
3055;DHT22;1537;52.018;8.542;2023-12-29T02:27:31;10.50;99.90
3055;DHT22;1537;52.018;8.542;2023-12-29T02:31:01;10.50;99.90
3055;DHT22;1537;52.018;8.542;2023-12-29T02:34:29;10.50;99.90
3055;DHT22;1537;52.018;8.542;2023-12-29T02:37:54;10.50;99.90
3055;DHT22;1537;52.018;8.542;2023-12-29T02:41:19;10.50;99.90
3055;DHT22;1537;52.018;8.542;2023-12-29T02:44:44;10.40;99.90
3055;DHT22;1537;52.018;8.542;2023-12-29T02:48:08;10.20;99.90
3055;DHT22;1537;52.018;8.542;2023-12-29T02:51:32;10.00;99.90
3055;DHT22;1537;52.018;8.542;2023-12-29T02:54:57;9.80;99.90
3055;DHT22;1537;52.018;8.542;2023-12-29T02:58:21;9.70;99.90
3055;DHT22;1537;52.018;8.542;2023-12-29T03:01:48;9.60;99.90
3055;DHT22;1537;52.018;8.542;2023-12-29T03:05:13;9.50;99.90
3055;DHT22;1537;52.018;8.542;2023-12-29T03:08:38;9.30;99.90
3055;DHT22;1537;52.018;8.542;2023-12-29T03:12:02;9.10;99.90
3055;DHT22;1537;52.018;8.542;2023-12-29T03:15:27;9.10;99.90
3055;DHT22;1537;52.018;8.542;2023-12-29T03:18:52;9.00;99.90
3055;DHT22;1537;52.018;8.542;2023-12-29T03:22:16;9.00;99.90
3055;DHT22;1537;52.018;8.542;2023-12-29T03:25:40;9.00;99.90
3055;DHT22;1537;52.018;8.542;2023-12-29T03:29:04;9.00;99.90
3055;DHT22;1537;52.018;8.542;2023-12-29T03:32:28;9.00;99.90
3055;DHT22;1537;52.018;8.542;2023-12-29T03:35:53;9.00;99.90
3055;DHT22;1537;52.018;8.542;2023-12-29T03:39:17;9.00;99.90
3055;DHT22;1537;52.018;8.542;2023-12-29T03:42:41;9.00;99.90
3055;DHT22;1537;52.018;8.542;2023-12-29T03:46:15;9.00;99.90
3055;DHT22;1537;52.018;8.542;2023-12-29T03:49:40;9.00;99.90
3055;DHT22;1537;52.018;8.542;2023-12-29T03:53:07;9.00;99.90
3055;DHT22;1537;52.018;8.542;2023-12-29T03:56:31;9.10;99.90
3055;DHT22;1537;52.018;8.542;2023-12-29T03:59:55;9.10;99.90
3055;DHT22;1537;52.018;8.542;2023-12-29T04:03:19;9.10;99.90
3055;DHT22;1537;52.018;8.542;2023-12-29T04:06:43;9.10;99.90
3055;DHT22;1537;52.018;8.542;2023-12-29T04:10:08;9.00;99.90
3055;DHT22;1537;52.018;8.542;2023-12-29T04:13:33;9.00;99.90
3055;DHT22;1537;52.018;8.542;2023-12-29T04:16:57;9.00;99.90
3055;DHT22;1537;52.018;8.542;2023-12-29T04:20:23;9.00;99.90
3055;DHT22;1537;52.018;8.542;2023-12-29T04:23:48;8.90;99.90
3055;DHT22;1537;52.018;8.542;2023-12-29T04:27:14;8.90;99.90
3055;DHT22;1537;52.018;8.542;2023-12-29T04:30:38;8.80;99.90
3055;DHT22;1537;52.018;8.542;2023-12-29T04:34:02;8.80;99.90
3055;DHT22;1537;52.018;8.542;2023-12-29T04:37:26;8.80;99.90
3055;DHT22;1537;52.018;8.542;2023-12-29T04:40:50;8.80;99.90
3055;DHT22;1537;52.018;8.542;2023-12-29T04:44:15;8.80;99.90
3055;DHT22;1537;52.018;8.542;2023-12-29T04:47:39;8.80;99.90
3055;DHT22;1537;52.018;8.542;2023-12-29T04:51:04;8.80;99.90
3055;DHT22;1537;52.018;8.542;2023-12-29T04:54:28;8.80;99.90
3055;DHT22;1537;52.018;8.542;2023-12-29T04:57:52;8.90;99.90
3055;DHT22;1537;52.018;8.542;2023-12-29T05:01:18;8.90;99.90
3055;DHT22;1537;52.018;8.542;2023-12-29T05:04:45;8.90;99.90
3055;DHT22;1537;52.018;8.542;2023-12-29T05:08:09;8.90;99.90
3055;DHT22;1537;52.018;8.542;2023-12-29T05:11:33;9.00;99.90
3055;DHT22;1537;52.018;8.542;2023-12-29T05:14:57;9.00;99.90
3055;DHT22;1537;52.018;8.542;2023-12-29T05:18:22;9.00;99.90
3055;DHT22;1537;52.018;8.542;2023-12-29T05:21:47;9.10;99.90
3055;DHT22;1537;52.018;8.542;2023-12-29T05:25:13;9.10;99.90
3055;DHT22;1537;52.018;8.542;2023-12-29T05:28:39;9.20;99.90
3055;DHT22;1537;52.018;8.542;2023-12-29T05:32:04;9.20;99.90
3055;DHT22;1537;52.018;8.542;2023-12-29T05:35:31;9.20;99.90
3055;DHT22;1537;52.018;8.542;2023-12-29T05:38:56;9.30;99.90
3055;DHT22;1537;52.018;8.542;2023-12-29T05:42:21;9.30;99.90
3055;DHT22;1537;52.018;8.542;2023-12-29T05:45:45;9.40;99.90
3055;DHT22;1537;52.018;8.542;2023-12-29T05:49:09;9.50;99.90
3055;DHT22;1537;52.018;8.542;2023-12-29T05:52:36;9.50;99.90
3055;DHT22;1537;52.018;8.542;2023-12-29T05:55:59;9.60;99.90
3055;DHT22;1537;52.018;8.542;2023-12-29T05:59:24;9.60;99.90
3055;DHT22;1537;52.018;8.542;2023-12-29T06:02:48;9.60;99.90
3055;DHT22;1537;52.018;8.542;2023-12-29T06:06:12;9.70;99.90
3055;DHT22;1537;52.018;8.542;2023-12-29T06:09:38;9.70;99.90
3055;DHT22;1537;52.018;8.542;2023-12-29T06:13:03;9.80;99.90
3055;DHT22;1537;52.018;8.542;2023-12-29T06:16:27;9.80;99.90
3055;DHT22;1537;52.018;8.542;2023-12-29T06:19:52;9.80;99.90
3055;DHT22;1537;52.018;8.542;2023-12-29T06:23:16;9.80;99.90
3055;DHT22;1537;52.018;8.542;2023-12-29T06:26:42;9.80;99.90
3055;DHT22;1537;52.018;8.542;2023-12-29T06:30:08;9.90;99.90
3055;DHT22;1537;52.018;8.542;2023-12-29T06:33:33;9.90;99.90
3055;DHT22;1537;52.018;8.542;2023-12-29T06:36:57;9.90;99.90
3055;DHT22;1537;52.018;8.542;2023-12-29T06:40:21;10.00;99.90
3055;DHT22;1537;52.018;8.542;2023-12-29T06:43:47;10.00;99.90
3055;DHT22;1537;52.018;8.542;2023-12-29T06:47:11;10.00;99.90
3055;DHT22;1537;52.018;8.542;2023-12-29T06:50:36;10.00;99.90
3055;DHT22;1537;52.018;8.542;2023-12-29T06:54:00;9.90;99.90
3055;DHT22;1537;52.018;8.542;2023-12-29T06:57:25;10.00;99.90
3055;DHT22;1537;52.018;8.542;2023-12-29T07:00:51;10.00;99.90
3055;DHT22;1537;52.018;8.542;2023-12-29T07:04:15;9.90;99.90
3055;DHT22;1537;52.018;8.542;2023-12-29T07:07:39;10.00;99.90
3055;DHT22;1537;52.018;8.542;2023-12-29T07:11:03;10.00;99.90
3055;DHT22;1537;52.018;8.542;2023-12-29T07:14:27;10.00;99.90
3055;DHT22;1537;52.018;8.542;2023-12-29T07:17:53;10.00;99.90
3055;DHT22;1537;52.018;8.542;2023-12-29T07:21:17;10.00;99.90
3055;DHT22;1537;52.018;8.542;2023-12-29T07:24:42;10.00;99.90
3055;DHT22;1537;52.018;8.542;2023-12-29T07:28:06;10.00;99.90
3055;DHT22;1537;52.018;8.542;2023-12-29T07:31:30;10.00;99.90
3055;DHT22;1537;52.018;8.542;2023-12-29T07:34:57;10.00;99.90
3055;DHT22;1537;52.018;8.542;2023-12-29T07:38:21;10.10;99.90
3055;DHT22;1537;52.018;8.542;2023-12-29T07:41:45;10.00;99.90
3055;DHT22;1537;52.018;8.542;2023-12-29T07:45:11;10.10;99.90
3055;DHT22;1537;52.018;8.542;2023-12-29T07:48:35;10.10;99.90
3055;DHT22;1537;52.018;8.542;2023-12-29T07:52:02;10.10;99.90
3055;DHT22;1537;52.018;8.542;2023-12-29T07:55:26;10.10;99.90
3055;DHT22;1537;52.018;8.542;2023-12-29T07:58:50;10.10;99.90
3055;DHT22;1537;52.018;8.542;2023-12-29T08:02:14;10.20;99.90
3055;DHT22;1537;52.018;8.542;2023-12-29T08:05:39;10.30;99.90
3055;DHT22;1537;52.018;8.542;2023-12-29T08:09:04;10.30;99.90
3055;DHT22;1537;52.018;8.542;2023-12-29T08:12:29;10.20;99.90
3055;DHT22;1537;52.018;8.542;2023-12-29T08:15:55;10.20;99.90
3055;DHT22;1537;52.018;8.542;2023-12-29T08:19:19;10.20;99.90
3055;DHT22;1537;52.018;8.542;2023-12-29T08:22:43;10.20;99.90
3055;DHT22;1537;52.018;8.542;2023-12-29T08:26:11;10.20;99.90
3055;DHT22;1537;52.018;8.542;2023-12-29T08:29:36;10.10;99.90
3055;DHT22;1537;52.018;8.542;2023-12-29T08:33:07;10.20;99.90
3055;DHT22;1537;52.018;8.542;2023-12-29T08:36:30;10.20;99.90
3055;DHT22;1537;52.018;8.542;2023-12-29T08:39:54;10.20;99.90
3055;DHT22;1537;52.018;8.542;2023-12-29T08:43:27;10.10;99.90
3055;DHT22;1537;52.018;8.542;2023-12-29T08:46:51;10.00;99.90
3055;DHT22;1537;52.018;8.542;2023-12-29T08:50:15;9.90;99.90
3055;DHT22;1537;52.018;8.542;2023-12-29T08:53:39;9.80;99.90
3055;DHT22;1537;52.018;8.542;2023-12-29T08:57:04;9.70;99.90
3055;DHT22;1537;52.018;8.542;2023-12-29T09:00:30;9.50;99.90
3055;DHT22;1537;52.018;8.542;2023-12-29T09:03:54;9.40;99.90
3055;DHT22;1537;52.018;8.542;2023-12-29T09:07:18;9.40;99.90
3055;DHT22;1537;52.018;8.542;2023-12-29T09:10:45;9.30;99.90
3055;DHT22;1537;52.018;8.542;2023-12-29T09:14:14;9.20;99.90
3055;DHT22;1537;52.018;8.542;2023-12-29T09:17:40;9.10;99.90
3055;DHT22;1537;52.018;8.542;2023-12-29T09:21:04;9.10;99.90
3055;DHT22;1537;52.018;8.542;2023-12-29T09:24:28;9.10;99.90
3055;DHT22;1537;52.018;8.542;2023-12-29T09:27:52;9.10;99.90
3055;DHT22;1537;52.018;8.542;2023-12-29T09:31:16;9.10;99.90
3055;DHT22;1537;52.018;8.542;2023-12-29T09:34:42;9.10;99.90
3055;DHT22;1537;52.018;8.542;2023-12-29T09:38:09;9.10;99.90
3055;DHT22;1537;52.018;8.542;2023-12-29T09:41:33;9.10;99.90
3055;DHT22;1537;52.018;8.542;2023-12-29T09:45:05;9.10;99.90
3055;DHT22;1537;52.018;8.542;2023-12-29T09:48:32;9.10;99.90
3055;DHT22;1537;52.018;8.542;2023-12-29T09:52:00;9.10;99.90
3055;DHT22;1537;52.018;8.542;2023-12-29T09:55:28;9.20;99.90
3055;DHT22;1537;52.018;8.542;2023-12-29T09:58:54;9.10;99.90
3055;DHT22;1537;52.018;8.542;2023-12-29T10:02:20;9.10;99.90
3055;DHT22;1537;52.018;8.542;2023-12-29T10:05:51;9.20;99.90
3055;DHT22;1537;52.018;8.542;2023-12-29T10:09:21;9.10;99.90
3055;DHT22;1537;52.018;8.542;2023-12-29T10:12:47;9.10;99.90
3055;DHT22;1537;52.018;8.542;2023-12-29T10:16:25;9.20;99.90
3055;DHT22;1537;52.018;8.542;2023-12-29T10:19:58;9.20;99.90
3055;DHT22;1537;52.018;8.542;2023-12-29T10:23:32;9.30;99.90
3055;DHT22;1537;52.018;8.542;2023-12-29T10:27:03;9.30;99.90
3055;DHT22;1537;52.018;8.542;2023-12-29T10:30:30;9.40;99.90
3055;DHT22;1537;52.018;8.542;2023-12-29T10:34:18;9.40;99.90
3055;DHT22;1537;52.018;8.542;2023-12-29T10:37:42;9.60;99.90
3055;DHT22;1537;52.018;8.542;2023-12-29T10:41:11;9.60;99.90
3055;DHT22;1537;52.018;8.542;2023-12-29T10:44:37;9.70;99.90
3055;DHT22;1537;52.018;8.542;2023-12-29T10:48:08;9.70;99.90
3055;DHT22;1537;52.018;8.542;2023-12-29T10:51:33;9.80;99.90
3055;DHT22;1537;52.018;8.542;2023-12-29T10:55:10;9.80;99.90
3055;DHT22;1537;52.018;8.542;2023-12-29T10:58:35;9.90;99.90
3055;DHT22;1537;52.018;8.542;2023-12-29T11:02:02;10.00;99.90
3055;DHT22;1537;52.018;8.542;2023-12-29T11:05:29;10.00;99.90
3055;DHT22;1537;52.018;8.542;2023-12-29T11:08:54;10.10;99.90
3055;DHT22;1537;52.018;8.542;2023-12-29T11:12:18;10.10;99.90
3055;DHT22;1537;52.018;8.542;2023-12-29T11:15:43;10.10;99.90
3055;DHT22;1537;52.018;8.542;2023-12-29T11:19:11;10.20;99.90
3055;DHT22;1537;52.018;8.542;2023-12-29T11:22:37;10.00;99.90
3055;DHT22;1537;52.018;8.542;2023-12-29T11:26:01;10.10;99.90
3055;DHT22;1537;52.018;8.542;2023-12-29T11:29:27;10.00;99.90
3055;DHT22;1537;52.018;8.542;2023-12-29T11:32:55;10.10;99.90
3055;DHT22;1537;52.018;8.542;2023-12-29T11:36:24;10.10;99.90
3055;DHT22;1537;52.018;8.542;2023-12-29T11:40:04;10.10;99.90
3055;DHT22;1537;52.018;8.542;2023-12-29T11:43:34;10.00;99.90
3055;DHT22;1537;52.018;8.542;2023-12-29T11:51:44;9.80;99.90
3055;DHT22;1537;52.018;8.542;2023-12-29T11:55:09;9.80;99.90
3055;DHT22;1537;52.018;8.542;2023-12-29T11:58:33;9.80;99.90
3055;DHT22;1537;52.018;8.542;2023-12-29T12:01:59;9.80;99.90
3055;DHT22;1537;52.018;8.542;2023-12-29T12:05:50;9.80;99.90
3055;DHT22;1537;52.018;8.542;2023-12-29T12:09:21;9.80;99.90
3055;DHT22;1537;52.018;8.542;2023-12-29T12:12:45;9.70;99.90
3055;DHT22;1537;52.018;8.542;2023-12-29T12:16:49;9.80;99.90
3055;DHT22;1537;52.018;8.542;2023-12-29T12:20:15;9.90;99.90
3055;DHT22;1537;52.018;8.542;2023-12-29T12:23:39;10.00;99.90
3055;DHT22;1537;52.018;8.542;2023-12-29T12:27:10;10.00;99.90
3055;DHT22;1537;52.018;8.542;2023-12-29T12:30:34;10.00;99.90
3055;DHT22;1537;52.018;8.542;2023-12-29T12:33:59;10.00;99.90
3055;DHT22;1537;52.018;8.542;2023-12-29T12:37:25;10.00;99.90
3055;DHT22;1537;52.018;8.542;2023-12-29T12:40:50;10.00;99.90
3055;DHT22;1537;52.018;8.542;2023-12-29T12:44:15;10.10;99.90
3055;DHT22;1537;52.018;8.542;2023-12-29T12:47:44;10.10;99.90
3055;DHT22;1537;52.018;8.542;2023-12-29T12:51:09;10.10;99.90
3055;DHT22;1537;52.018;8.542;2023-12-29T12:54:33;10.20;99.90
3055;DHT22;1537;52.018;8.542;2023-12-29T12:58:00;10.30;99.90
3055;DHT22;1537;52.018;8.542;2023-12-29T13:01:29;10.30;99.90
3055;DHT22;1537;52.018;8.542;2023-12-29T13:04:54;10.30;99.90
3055;DHT22;1537;52.018;8.542;2023-12-29T13:08:21;10.30;99.90
3055;DHT22;1537;52.018;8.542;2023-12-29T13:12:12;10.40;99.90
3055;DHT22;1537;52.018;8.542;2023-12-29T13:15:47;10.40;99.90
3055;DHT22;1537;52.018;8.542;2023-12-29T13:19:21;10.40;99.90
3055;DHT22;1537;52.018;8.542;2023-12-29T13:22:47;10.50;99.90
3055;DHT22;1537;52.018;8.542;2023-12-29T13:26:12;10.50;99.90
3055;DHT22;1537;52.018;8.542;2023-12-29T13:29:38;10.50;99.90
3055;DHT22;1537;52.018;8.542;2023-12-29T13:33:07;10.60;99.90
3055;DHT22;1537;52.018;8.542;2023-12-29T13:36:41;10.60;99.90
3055;DHT22;1537;52.018;8.542;2023-12-29T13:40:11;10.50;99.90
3055;DHT22;1537;52.018;8.542;2023-12-29T13:43:39;10.60;99.90
3055;DHT22;1537;52.018;8.542;2023-12-29T13:47:06;10.50;99.90
3055;DHT22;1537;52.018;8.542;2023-12-29T13:50:31;10.50;99.90
3055;DHT22;1537;52.018;8.542;2023-12-29T13:54:00;10.50;99.90
3055;DHT22;1537;52.018;8.542;2023-12-29T13:57:30;10.50;99.90
3055;DHT22;1537;52.018;8.542;2023-12-29T14:00:56;10.50;99.90
3055;DHT22;1537;52.018;8.542;2023-12-29T14:04:21;10.50;99.90
3055;DHT22;1537;52.018;8.542;2023-12-29T14:07:53;10.50;99.90
3055;DHT22;1537;52.018;8.542;2023-12-29T14:11:23;10.50;99.90
3055;DHT22;1537;52.018;8.542;2023-12-29T14:14:47;10.40;99.90
3055;DHT22;1537;52.018;8.542;2023-12-29T14:18:38;10.40;99.90
3055;DHT22;1537;52.018;8.542;2023-12-29T14:22:21;10.40;99.90
3055;DHT22;1537;52.018;8.542;2023-12-29T14:25:50;10.40;99.90
3055;DHT22;1537;52.018;8.542;2023-12-29T14:29:17;10.40;99.90
3055;DHT22;1537;52.018;8.542;2023-12-29T14:32:46;10.40;99.90
3055;DHT22;1537;52.018;8.542;2023-12-29T14:36:14;10.40;99.90
3055;DHT22;1537;52.018;8.542;2023-12-29T14:39:38;10.40;99.90
3055;DHT22;1537;52.018;8.542;2023-12-29T14:43:02;10.40;99.90
3055;DHT22;1537;52.018;8.542;2023-12-29T14:46:28;10.40;99.90
3055;DHT22;1537;52.018;8.542;2023-12-29T14:50:01;10.30;99.90
3055;DHT22;1537;52.018;8.542;2023-12-29T14:53:26;10.20;99.90
3055;DHT22;1537;52.018;8.542;2023-12-29T14:56:50;10.20;99.90
3055;DHT22;1537;52.018;8.542;2023-12-29T15:00:22;10.10;99.90
3055;DHT22;1537;52.018;8.542;2023-12-29T15:03:48;10.00;99.90
3055;DHT22;1537;52.018;8.542;2023-12-29T15:07:14;9.90;99.90
3055;DHT22;1537;52.018;8.542;2023-12-29T15:10:42;9.80;99.90
3055;DHT22;1537;52.018;8.542;2023-12-29T15:14:06;9.70;99.90
3055;DHT22;1537;52.018;8.542;2023-12-29T15:17:31;9.80;99.90
3055;DHT22;1537;52.018;8.542;2023-12-29T15:20:56;9.70;99.90
3055;DHT22;1537;52.018;8.542;2023-12-29T15:24:21;9.70;99.90
3055;DHT22;1537;52.018;8.542;2023-12-29T15:27:46;9.60;99.90
3055;DHT22;1537;52.018;8.542;2023-12-29T15:31:11;9.60;99.90
3055;DHT22;1537;52.018;8.542;2023-12-29T15:34:39;9.60;99.90
3055;DHT22;1537;52.018;8.542;2023-12-29T15:38:04;9.50;99.90
3055;DHT22;1537;52.018;8.542;2023-12-29T15:41:29;9.50;99.90
3055;DHT22;1537;52.018;8.542;2023-12-29T15:44:54;9.40;99.90
3055;DHT22;1537;52.018;8.542;2023-12-29T15:48:18;9.30;99.90
3055;DHT22;1537;52.018;8.542;2023-12-29T15:51:42;9.20;99.90
3055;DHT22;1537;52.018;8.542;2023-12-29T15:55:08;9.10;99.90
3055;DHT22;1537;52.018;8.542;2023-12-29T15:58:32;9.00;99.90
3055;DHT22;1537;52.018;8.542;2023-12-29T16:01:58;8.90;99.90
3055;DHT22;1537;52.018;8.542;2023-12-29T16:05:22;8.90;99.90
3055;DHT22;1537;52.018;8.542;2023-12-29T16:08:46;8.90;99.90
3055;DHT22;1537;52.018;8.542;2023-12-29T16:12:11;8.90;99.90
3055;DHT22;1537;52.018;8.542;2023-12-29T16:15:35;8.80;99.90
3055;DHT22;1537;52.018;8.542;2023-12-29T16:18:59;8.70;99.90
3055;DHT22;1537;52.018;8.542;2023-12-29T16:22:24;8.70;99.90
3055;DHT22;1537;52.018;8.542;2023-12-29T16:25:48;8.70;99.90
3055;DHT22;1537;52.018;8.542;2023-12-29T16:29:22;8.80;99.90
3055;DHT22;1537;52.018;8.542;2023-12-29T16:32:48;8.70;99.90
3055;DHT22;1537;52.018;8.542;2023-12-29T16:36:14;8.70;99.90
3055;DHT22;1537;52.018;8.542;2023-12-29T16:39:40;8.70;99.90
3055;DHT22;1537;52.018;8.542;2023-12-29T16:43:09;8.80;99.90
3055;DHT22;1537;52.018;8.542;2023-12-29T16:46:37;8.80;99.90
3055;DHT22;1537;52.018;8.542;2023-12-29T16:50:04;8.90;99.90
3055;DHT22;1537;52.018;8.542;2023-12-29T16:53:37;9.00;99.90
3055;DHT22;1537;52.018;8.542;2023-12-29T16:57:01;8.90;99.90
3055;DHT22;1537;52.018;8.542;2023-12-29T17:00:27;8.90;99.90
3055;DHT22;1537;52.018;8.542;2023-12-29T17:03:54;9.00;99.90
3055;DHT22;1537;52.018;8.542;2023-12-29T17:07:30;8.90;99.90
3055;DHT22;1537;52.018;8.542;2023-12-29T17:10:59;8.90;99.90
3055;DHT22;1537;52.018;8.542;2023-12-29T17:14:30;8.90;99.90
3055;DHT22;1537;52.018;8.542;2023-12-29T17:17:56;8.90;99.90
3055;DHT22;1537;52.018;8.542;2023-12-29T17:21:23;8.90;99.90
3055;DHT22;1537;52.018;8.542;2023-12-29T17:24:47;9.00;99.90
3055;DHT22;1537;52.018;8.542;2023-12-29T17:28:11;9.00;99.90
3055;DHT22;1537;52.018;8.542;2023-12-29T17:31:39;9.10;99.90
3055;DHT22;1537;52.018;8.542;2023-12-29T17:35:04;9.10;99.90
3055;DHT22;1537;52.018;8.542;2023-12-29T17:38:29;9.20;99.90
3055;DHT22;1537;52.018;8.542;2023-12-29T17:41:53;9.20;99.90
3055;DHT22;1537;52.018;8.542;2023-12-29T17:45:16;9.20;99.90
3055;DHT22;1537;52.018;8.542;2023-12-29T17:48:40;9.30;99.90
3055;DHT22;1537;52.018;8.542;2023-12-29T17:52:04;9.30;99.90
3055;DHT22;1537;52.018;8.542;2023-12-29T17:55:29;9.40;99.90
3055;DHT22;1537;52.018;8.542;2023-12-29T17:58:53;9.40;99.90
3055;DHT22;1537;52.018;8.542;2023-12-29T18:02:17;9.40;99.90
3055;DHT22;1537;52.018;8.542;2023-12-29T18:05:40;9.40;99.90
3055;DHT22;1537;52.018;8.542;2023-12-29T18:09:07;9.40;99.90
3055;DHT22;1537;52.018;8.542;2023-12-29T18:12:34;9.40;99.90
3055;DHT22;1537;52.018;8.542;2023-12-29T18:15:58;9.40;99.90
3055;DHT22;1537;52.018;8.542;2023-12-29T18:19:22;9.50;99.90
3055;DHT22;1537;52.018;8.542;2023-12-29T18:22:46;9.50;99.90
3055;DHT22;1537;52.018;8.542;2023-12-29T18:26:10;9.50;99.90
3055;DHT22;1537;52.018;8.542;2023-12-29T18:29:35;9.50;99.90
3055;DHT22;1537;52.018;8.542;2023-12-29T18:32:58;9.60;99.90
3055;DHT22;1537;52.018;8.542;2023-12-29T18:36:23;9.60;99.90
3055;DHT22;1537;52.018;8.542;2023-12-29T18:39:46;9.70;99.90
3055;DHT22;1537;52.018;8.542;2023-12-29T18:43:10;9.60;99.90
3055;DHT22;1537;52.018;8.542;2023-12-29T18:46:36;9.70;99.90
3055;DHT22;1537;52.018;8.542;2023-12-29T18:49:59;9.70;99.90
3055;DHT22;1537;52.018;8.542;2023-12-29T18:53:23;9.70;99.90
3055;DHT22;1537;52.018;8.542;2023-12-29T18:56:47;9.70;99.90
3055;DHT22;1537;52.018;8.542;2023-12-29T19:00:12;9.80;99.90
3055;DHT22;1537;52.018;8.542;2023-12-29T19:03:37;9.70;99.90
3055;DHT22;1537;52.018;8.542;2023-12-29T19:07:01;9.80;99.90
3055;DHT22;1537;52.018;8.542;2023-12-29T19:10:27;9.80;99.90
3055;DHT22;1537;52.018;8.542;2023-12-29T19:13:55;9.80;99.90
3055;DHT22;1537;52.018;8.542;2023-12-29T19:17:19;9.80;99.90
3055;DHT22;1537;52.018;8.542;2023-12-29T19:20:48;9.90;99.90
3055;DHT22;1537;52.018;8.542;2023-12-29T19:24:14;9.90;99.90
3055;DHT22;1537;52.018;8.542;2023-12-29T19:27:40;9.90;99.90
3055;DHT22;1537;52.018;8.542;2023-12-29T19:31:09;9.90;99.90
3055;DHT22;1537;52.018;8.542;2023-12-29T19:34:38;9.90;99.90
3055;DHT22;1537;52.018;8.542;2023-12-29T19:38:04;9.90;99.90
3055;DHT22;1537;52.018;8.542;2023-12-29T19:41:32;9.90;99.90
3055;DHT22;1537;52.018;8.542;2023-12-29T19:44:57;9.80;99.90
3055;DHT22;1537;52.018;8.542;2023-12-29T19:48:37;9.80;99.90
3055;DHT22;1537;52.018;8.542;2023-12-29T19:52:03;9.80;99.90
3055;DHT22;1537;52.018;8.542;2023-12-29T19:55:32;9.80;99.90
3055;DHT22;1537;52.018;8.542;2023-12-29T19:58:58;9.40;99.90
3055;DHT22;1537;52.018;8.542;2023-12-29T20:02:23;8.90;99.90
3055;DHT22;1537;52.018;8.542;2023-12-29T20:05:50;8.50;99.90
3055;DHT22;1537;52.018;8.542;2023-12-29T20:09:19;8.40;99.90
3055;DHT22;1537;52.018;8.542;2023-12-29T20:12:48;8.30;99.90
3055;DHT22;1537;52.018;8.542;2023-12-29T20:16:21;8.20;99.90
3055;DHT22;1537;52.018;8.542;2023-12-29T20:19:48;8.10;99.90
3055;DHT22;1537;52.018;8.542;2023-12-29T20:23:16;8.10;99.90
3055;DHT22;1537;52.018;8.542;2023-12-29T20:26:46;8.10;99.90
3055;DHT22;1537;52.018;8.542;2023-12-29T20:30:17;8.10;99.90
3055;DHT22;1537;52.018;8.542;2023-12-29T20:33:46;8.10;99.90
3055;DHT22;1537;52.018;8.542;2023-12-29T20:37:11;8.10;99.90
3055;DHT22;1537;52.018;8.542;2023-12-29T20:40:38;8.00;99.90
3055;DHT22;1537;52.018;8.542;2023-12-29T20:44:01;8.00;99.90
3055;DHT22;1537;52.018;8.542;2023-12-29T20:47:32;8.00;99.90
3055;DHT22;1537;52.018;8.542;2023-12-29T20:50:56;7.90;99.90
3055;DHT22;1537;52.018;8.542;2023-12-29T20:54:33;7.90;99.90
3055;DHT22;1537;52.018;8.542;2023-12-29T20:58:02;7.90;99.90
3055;DHT22;1537;52.018;8.542;2023-12-29T21:01:28;7.90;99.90
3055;DHT22;1537;52.018;8.542;2023-12-29T21:04:56;7.90;99.90
3055;DHT22;1537;52.018;8.542;2023-12-29T21:08:24;7.90;99.90
3055;DHT22;1537;52.018;8.542;2023-12-29T21:11:53;7.90;99.90
3055;DHT22;1537;52.018;8.542;2023-12-29T21:15:18;7.80;99.90
3055;DHT22;1537;52.018;8.542;2023-12-29T21:18:44;7.80;99.90
3055;DHT22;1537;52.018;8.542;2023-12-29T21:22:19;7.80;99.90
3055;DHT22;1537;52.018;8.542;2023-12-29T21:25:48;7.80;99.90
3055;DHT22;1537;52.018;8.542;2023-12-29T21:29:16;7.90;99.90
3055;DHT22;1537;52.018;8.542;2023-12-29T21:32:45;7.90;99.90
3055;DHT22;1537;52.018;8.542;2023-12-29T21:36:22;7.90;99.90
3055;DHT22;1537;52.018;8.542;2023-12-29T21:39:51;7.90;99.90
3055;DHT22;1537;52.018;8.542;2023-12-29T21:43:15;7.90;99.90
3055;DHT22;1537;52.018;8.542;2023-12-29T21:46:40;7.90;99.90
3055;DHT22;1537;52.018;8.542;2023-12-29T21:50:14;7.90;99.90
3055;DHT22;1537;52.018;8.542;2023-12-29T21:53:40;8.00;99.90
3055;DHT22;1537;52.018;8.542;2023-12-29T21:57:08;8.00;99.90
3055;DHT22;1537;52.018;8.542;2023-12-29T22:00:36;8.10;99.90
3055;DHT22;1537;52.018;8.542;2023-12-29T22:04:06;8.10;99.90
3055;DHT22;1537;52.018;8.542;2023-12-29T22:07:32;8.10;99.90
3055;DHT22;1537;52.018;8.542;2023-12-29T22:10:59;8.10;99.90
3055;DHT22;1537;52.018;8.542;2023-12-29T22:14:30;8.10;99.90
3055;DHT22;1537;52.018;8.542;2023-12-29T22:17:57;8.00;99.90
3055;DHT22;1537;52.018;8.542;2023-12-29T22:21:31;8.00;99.90
3055;DHT22;1537;52.018;8.542;2023-12-29T22:24:57;8.00;99.90
3055;DHT22;1537;52.018;8.542;2023-12-29T22:28:23;7.90;99.90
3055;DHT22;1537;52.018;8.542;2023-12-29T22:31:53;8.00;99.90
3055;DHT22;1537;52.018;8.542;2023-12-29T22:35:17;8.00;99.90
3055;DHT22;1537;52.018;8.542;2023-12-29T22:38:43;8.00;99.90
3055;DHT22;1537;52.018;8.542;2023-12-29T22:42:19;8.00;99.90
3055;DHT22;1537;52.018;8.542;2023-12-29T22:45:43;8.00;99.90
3055;DHT22;1537;52.018;8.542;2023-12-29T22:49:19;7.90;99.90